createdAt,value
2022-11-16T00:00:53.069Z,8.20
2022-11-16T00:01:53.097Z,7.80
2022-11-16T00:02:53.040Z,8.60
2022-11-16T00:03:53.039Z,8.60
2022-11-16T00:04:53.001Z,8.10
2022-11-16T00:05:52.989Z,7.90
2022-11-16T00:06:52.990Z,7.00
2022-11-16T00:07:52.953Z,9.00
2022-11-16T00:08:52.956Z,7.30
2022-11-16T00:09:52.913Z,7.60
2022-11-16T00:10:52.898Z,8.80
2022-11-16T00:11:52.878Z,8.10
2022-11-16T00:12:52.852Z,8.60
2022-11-16T00:13:52.864Z,7.90
2022-11-16T00:14:52.819Z,8.10
2022-11-16T00:15:52.804Z,7.90
2022-11-16T00:16:52.790Z,7.80
2022-11-16T00:17:52.769Z,7.90
2022-11-16T00:18:52.779Z,9.70
2022-11-16T00:19:52.743Z,13.30
2022-11-16T00:20:52.724Z,9.20
2022-11-16T00:21:52.699Z,11.20
2022-11-16T00:22:52.679Z,8.40
2022-11-16T00:23:52.695Z,10.00
2022-11-16T00:24:52.648Z,9.50
2022-11-16T00:25:52.632Z,9.50
2022-11-16T00:26:52.611Z,9.20
2022-11-16T00:27:52.593Z,9.10
2022-11-16T00:28:52.605Z,10.30
2022-11-16T00:29:52.558Z,8.20
2022-11-16T00:30:52.547Z,9.50
2022-11-16T00:31:52.539Z,9.90
2022-11-16T00:32:52.509Z,9.50
2022-11-16T00:33:52.535Z,9.10
2022-11-16T00:34:52.492Z,10.10
2022-11-16T00:35:52.469Z,10.00
2022-11-16T00:36:52.458Z,9.80
2022-11-16T00:37:52.422Z,10.10
2022-11-16T00:38:52.429Z,10.80
2022-11-16T00:39:52.392Z,9.20
2022-11-16T00:40:52.372Z,10.80
2022-11-16T00:41:52.362Z,10.20
2022-11-16T00:42:52.339Z,9.90
2022-11-16T00:43:52.341Z,8.70
2022-11-16T00:44:52.335Z,11.10
2022-11-16T00:45:53.290Z,10.80
2022-11-16T00:46:52.280Z,10.40
2022-11-16T00:47:56.439Z,12.50
2022-11-16T00:48:53.314Z,9.40
2022-11-16T00:49:52.210Z,10.30
2022-11-16T00:50:52.190Z,12.00
2022-11-16T00:51:52.176Z,12.00
2022-11-16T00:52:52.165Z,11.50
2022-11-16T00:53:52.194Z,9.80
2022-11-16T00:54:52.133Z,11.40
2022-11-16T00:55:52.120Z,11.10
2022-11-16T00:56:52.123Z,10.00
2022-11-16T00:57:52.083Z,12.10
2022-11-16T00:58:52.088Z,9.80
2022-11-16T00:59:52.037Z,9.80
2022-11-16T01:00:52.060Z,11.70
2022-11-16T01:01:52.040Z,11.60
2022-11-16T01:02:51.985Z,11.40
2022-11-16T01:03:52.033Z,10.70
2022-11-16T01:04:51.973Z,11.20
2022-11-16T01:05:51.957Z,11.60
2022-11-16T01:06:52.581Z,12.10
2022-11-16T01:07:51.898Z,9.70
2022-11-16T01:08:51.880Z,10.70
2022-11-16T01:09:51.895Z,11.70
2022-11-16T01:10:51.850Z,10.90
2022-11-16T01:11:51.833Z,10.40
2022-11-16T01:12:51.828Z,12.80
2022-11-16T01:13:51.800Z,12.00
2022-11-16T01:14:51.799Z,10.00
2022-11-16T01:15:51.759Z,14.00
2022-11-16T01:17:31.645Z,11.30
2022-11-16T01:17:51.728Z,13.70
2022-11-16T01:18:51.712Z,12.20
2022-11-16T01:19:51.734Z,12.40
2022-11-16T01:20:51.681Z,11.80
2022-11-16T01:21:51.660Z,12.10
2022-11-16T01:22:51.647Z,11.20
2022-11-16T01:23:51.624Z,11.70
2022-11-16T01:24:51.635Z,12.50
2022-11-16T01:25:51.599Z,10.50
2022-11-16T01:26:51.577Z,10.10
2022-11-16T01:27:51.559Z,12.20
2022-11-16T01:28:51.549Z,10.90
2022-11-16T01:29:51.550Z,10.60
2022-11-16T01:30:51.513Z,12.40
2022-11-16T01:31:51.491Z,10.80
2022-11-16T01:32:51.474Z,11.50
2022-11-16T01:33:51.460Z,10.70
2022-11-16T01:34:51.464Z,11.30
2022-11-16T01:35:51.428Z,13.50
2022-11-16T01:36:51.403Z,12.70
2022-11-16T01:37:51.387Z,15.30
2022-11-16T01:38:51.370Z,11.80
2022-11-16T01:39:51.380Z,11.70
2022-11-16T01:40:51.339Z,12.40
2022-11-16T01:41:51.321Z,11.80
2022-11-16T01:42:51.301Z,12.90
2022-11-16T01:43:51.282Z,10.70
2022-11-16T01:44:51.293Z,13.80
2022-11-16T01:45:51.249Z,10.20
2022-11-16T01:46:51.232Z,9.80
2022-11-16T01:47:51.269Z,9.40
2022-11-16T01:48:51.215Z,12.70
2022-11-16T01:49:51.214Z,12.90
2022-11-16T01:50:51.161Z,10.70
2022-11-16T01:51:51.145Z,13.50
2022-11-16T01:52:51.135Z,11.00
2022-11-16T01:53:51.117Z,12.10
2022-11-16T01:54:51.121Z,11.70
2022-11-16T01:55:51.073Z,13.30
2022-11-16T01:56:51.061Z,12.60
2022-11-16T01:57:51.037Z,10.90
2022-11-16T01:58:51.024Z,15.00
2022-11-16T01:59:51.041Z,10.30
2022-11-16T02:00:51.017Z,13.30
2022-11-16T02:01:50.985Z,11.10
2022-11-16T02:02:50.951Z,13.70
2022-11-16T02:03:50.948Z,12.00
2022-11-16T02:04:50.947Z,9.60
2022-11-16T02:05:50.921Z,10.80
2022-11-16T02:06:50.902Z,10.00
2022-11-16T02:07:50.873Z,11.70
2022-11-16T02:08:50.857Z,12.50
2022-11-16T02:09:50.864Z,15.30
2022-11-16T02:10:50.828Z,10.50
2022-11-16T02:11:50.813Z,13.00
2022-11-16T02:12:50.786Z,13.60
2022-11-16T02:13:51.578Z,11.60
2022-11-16T02:14:51.786Z,12.30
2022-11-16T02:15:50.742Z,12.90
2022-11-16T02:16:50.722Z,11.70
2022-11-16T02:17:50.700Z,11.00
2022-11-16T02:18:50.683Z,13.10
2022-11-16T02:19:50.702Z,14.10
2022-11-16T02:20:50.647Z,12.40
2022-11-16T02:21:50.635Z,11.70
2022-11-16T02:22:50.617Z,11.50
2022-11-16T02:23:50.603Z,11.90
2022-11-16T02:24:50.610Z,13.20
2022-11-16T02:25:50.562Z,12.80
2022-11-16T02:26:50.554Z,12.10
2022-11-16T02:27:50.530Z,12.10
2022-11-16T02:28:50.511Z,12.40
2022-11-16T02:29:50.517Z,11.70
2022-11-16T02:30:50.479Z,12.30
2022-11-16T02:31:50.454Z,14.50
2022-11-16T02:32:50.439Z,13.30
2022-11-16T02:33:50.420Z,13.60
2022-11-16T02:34:50.427Z,11.20
2022-11-16T02:35:50.390Z,13.10
2022-11-16T02:36:50.367Z,12.10
2022-11-16T02:37:50.352Z,13.70
2022-11-16T02:38:50.331Z,13.20
2022-11-16T02:39:50.339Z,12.50
2022-11-16T02:40:50.291Z,14.40
2022-11-16T02:41:50.280Z,13.60
2022-11-16T02:42:50.255Z,15.60
2022-11-16T02:43:50.243Z,14.60
2022-11-16T02:44:50.248Z,14.60
2022-11-16T02:45:50.204Z,14.80
2022-11-16T02:46:50.213Z,14.00
2022-11-16T02:47:50.177Z,16.40
2022-11-16T02:48:50.156Z,17.10
2022-11-16T02:49:50.168Z,15.90
2022-11-16T02:50:50.127Z,13.90
2022-11-16T02:51:50.105Z,13.70
2022-11-16T02:52:50.085Z,12.20
2022-11-16T02:53:50.063Z,14.60
2022-11-16T02:54:50.076Z,15.90
2022-11-16T02:55:50.074Z,14.90
2022-11-16T02:56:50.008Z,14.20
2022-11-16T02:57:49.989Z,15.00
2022-11-16T02:58:49.998Z,14.10
2022-11-16T02:59:49.996Z,14.10
2022-11-16T03:00:50.632Z,13.20
2022-11-16T03:01:50.940Z,16.10
2022-11-16T03:02:49.909Z,16.10
2022-11-16T03:03:49.912Z,15.90
2022-11-16T03:04:49.910Z,14.40
2022-11-16T03:05:49.851Z,16.60
2022-11-16T03:06:49.866Z,15.00
2022-11-16T03:07:49.837Z,17.00
2022-11-16T03:08:49.801Z,16.60
2022-11-16T03:09:49.805Z,14.70
2022-11-16T03:10:49.776Z,14.00
2022-11-16T03:11:49.750Z,17.40
2022-11-16T03:12:49.725Z,14.00
2022-11-16T03:13:49.707Z,16.90
2022-11-16T03:14:49.734Z,17.10
2022-11-16T03:15:49.670Z,14.20
2022-11-16T03:16:49.650Z,16.20
2022-11-16T03:17:49.633Z,15.30
2022-11-16T03:18:49.617Z,17.90
2022-11-16T03:19:49.630Z,17.40
2022-11-16T03:20:49.582Z,15.90
2022-11-16T03:21:49.562Z,15.30
2022-11-16T03:22:49.548Z,16.30
2022-11-16T03:23:49.524Z,16.40
2022-11-16T03:24:49.533Z,15.50
2022-11-16T03:25:49.509Z,16.10
2022-11-16T03:26:49.473Z,17.20
2022-11-16T03:27:49.462Z,17.70
2022-11-16T03:28:49.437Z,16.20
2022-11-16T03:29:49.448Z,18.00
2022-11-16T03:30:49.406Z,17.90
2022-11-16T03:32:30.250Z,16.40
2022-11-16T03:32:49.374Z,16.30
2022-11-16T03:33:49.357Z,17.30
2022-11-16T03:34:49.361Z,17.70
2022-11-16T03:35:49.325Z,19.40
2022-11-16T03:36:49.319Z,18.90
2022-11-16T03:37:49.287Z,19.60
2022-11-16T03:38:49.262Z,18.50
2022-11-16T03:39:49.274Z,21.40
2022-11-16T03:40:49.231Z,18.90
2022-11-16T03:41:49.236Z,18.10
2022-11-16T03:42:49.198Z,19.60
2022-11-16T03:43:49.177Z,20.30
2022-11-16T03:44:49.189Z,18.30
2022-11-16T03:45:49.141Z,22.00
2022-11-16T03:46:49.178Z,20.20
2022-11-16T03:47:49.139Z,20.20
2022-11-16T03:48:49.092Z,19.20
2022-11-16T03:49:49.112Z,20.40
2022-11-16T03:50:49.055Z,21.90
2022-11-16T03:51:49.039Z,22.40
2022-11-16T03:52:49.027Z,19.70
2022-11-16T03:53:49.005Z,22.20
2022-11-16T03:54:48.987Z,23.50
2022-11-16T03:55:50.091Z,23.10
2022-11-16T03:56:49.952Z,22.10
2022-11-16T03:57:48.933Z,22.90
2022-11-16T03:58:48.922Z,24.70
2022-11-16T03:59:48.934Z,25.80
2022-11-16T04:00:48.924Z,25.60
2022-11-16T04:01:48.867Z,27.60
2022-11-16T04:02:48.875Z,25.80
2022-11-16T04:03:48.857Z,23.50
2022-11-16T04:04:48.863Z,23.80
2022-11-16T04:05:48.833Z,22.30
2022-11-16T04:06:48.842Z,25.00
2022-11-16T04:07:48.762Z,24.80
2022-11-16T04:08:49.748Z,25.70
2022-11-16T04:09:48.736Z,26.60
2022-11-16T04:10:48.744Z,25.80
2022-11-16T04:11:48.691Z,26.60
2022-11-16T04:12:48.678Z,26.50
2022-11-16T04:13:48.694Z,25.20
2022-11-16T04:14:48.644Z,25.50
2022-11-16T04:15:48.650Z,27.50
2022-11-16T04:16:48.607Z,26.30
2022-11-16T04:17:48.611Z,27.30
2022-11-16T04:18:48.573Z,29.50
2022-11-16T04:19:48.551Z,31.20
2022-11-16T04:20:48.564Z,28.30
2022-11-16T04:21:48.522Z,29.30
2022-11-16T04:22:48.517Z,27.40
2022-11-16T04:23:48.487Z,31.60
2022-11-16T04:24:48.481Z,30.80
2022-11-16T04:25:49.482Z,30.70
2022-11-16T04:26:48.445Z,28.30
2022-11-16T04:27:48.421Z,30.30
2022-11-16T04:28:48.403Z,30.80
2022-11-16T04:29:48.387Z,32.90
2022-11-16T04:30:48.388Z,31.80
2022-11-16T04:31:48.371Z,33.00
2022-11-16T04:32:48.334Z,31.10
2022-11-16T04:33:48.312Z,30.30
2022-11-16T04:34:48.296Z,34.30
2022-11-16T04:35:48.330Z,34.90
2022-11-16T04:36:48.267Z,32.00
2022-11-16T04:37:48.255Z,32.90
2022-11-16T04:38:48.223Z,36.20
2022-11-16T04:39:48.204Z,32.10
2022-11-16T04:40:48.219Z,31.80
2022-11-16T04:41:48.177Z,33.70
2022-11-16T04:42:48.157Z,34.80
2022-11-16T04:43:48.139Z,35.10
2022-11-16T04:44:48.123Z,39.00
2022-11-16T04:45:48.148Z,34.50
2022-11-16T04:46:48.083Z,35.80
2022-11-16T04:47:48.073Z,34.70
2022-11-16T04:48:48.050Z,34.60
2022-11-16T04:49:48.033Z,37.00
2022-11-16T04:50:48.045Z,34.50
2022-11-16T04:51:47.997Z,38.80
2022-11-16T04:52:47.996Z,33.40
2022-11-16T04:53:47.964Z,36.70
2022-11-16T04:54:47.949Z,37.20
2022-11-16T04:55:47.963Z,33.80
2022-11-16T04:56:47.907Z,39.80
2022-11-16T04:57:47.887Z,35.30
2022-11-16T04:58:48.873Z,35.10
2022-11-16T04:59:47.855Z,37.60
2022-11-16T05:00:47.866Z,35.80
2022-11-16T05:01:47.867Z,34.30
2022-11-16T05:02:47.801Z,36.00
2022-11-16T05:03:47.783Z,38.30
2022-11-16T05:04:47.769Z,39.90
2022-11-16T05:05:47.768Z,38.60
2022-11-16T05:06:47.807Z,38.40
2022-11-16T05:07:47.714Z,36.80
2022-11-16T05:08:47.698Z,41.40
2022-11-16T05:09:47.677Z,41.60
2022-11-16T05:10:47.691Z,39.40
2022-11-16T05:11:47.640Z,39.00
2022-11-16T05:12:47.638Z,37.80
2022-11-16T05:13:47.603Z,38.10
2022-11-16T05:14:47.602Z,39.40
2022-11-16T05:15:47.597Z,41.00
2022-11-16T05:16:47.550Z,40.40
2022-11-16T05:17:47.537Z,39.90
2022-11-16T05:18:47.526Z,41.40
2022-11-16T05:19:47.506Z,38.20
2022-11-16T05:20:47.508Z,40.00
2022-11-16T05:21:47.469Z,40.40
2022-11-16T05:22:47.445Z,40.70
2022-11-16T05:23:47.443Z,39.80
2022-11-16T05:24:47.413Z,40.80
2022-11-16T05:25:47.417Z,42.30
2022-11-16T05:26:47.370Z,38.50
2022-11-16T05:27:47.363Z,42.40
2022-11-16T05:28:47.341Z,39.70
2022-11-16T05:29:47.345Z,43.00
2022-11-16T05:30:47.329Z,39.30
2022-11-16T05:31:47.296Z,40.30
2022-11-16T05:32:47.270Z,46.00
2022-11-16T05:33:47.253Z,41.40
2022-11-16T05:34:47.248Z,42.10
2022-11-16T05:35:47.241Z,45.60
2022-11-16T05:36:47.237Z,40.90
2022-11-16T05:37:47.178Z,39.80
2022-11-16T05:38:47.168Z,41.10
2022-11-16T05:39:47.181Z,39.30
2022-11-16T05:40:47.179Z,44.80
2022-11-16T05:41:47.230Z,41.80
2022-11-16T05:42:47.100Z,38.70
2022-11-16T05:43:47.102Z,43.30
2022-11-16T05:44:47.060Z,41.40
2022-11-16T05:45:47.044Z,39.20
2022-11-16T05:46:47.057Z,37.80
2022-11-16T05:47:47.002Z,42.00
2022-11-16T05:48:47.013Z,39.60
2022-11-16T05:50:27.852Z,38.70
2022-11-16T05:50:46.983Z,40.40
2022-11-16T05:51:46.948Z,42.10
2022-11-16T05:52:46.924Z,44.50
2022-11-16T05:53:46.907Z,40.40
2022-11-16T05:54:46.887Z,40.00
2022-11-16T05:55:46.953Z,42.50
2022-11-16T05:56:46.852Z,41.30
2022-11-16T05:57:46.833Z,42.30
2022-11-16T05:58:46.844Z,42.00
2022-11-16T05:59:46.803Z,42.50
2022-11-16T06:00:46.814Z,43.90
2022-11-16T06:01:46.761Z,40.10
2022-11-16T06:02:46.779Z,42.60
2022-11-16T06:03:46.726Z,43.20
2022-11-16T06:04:46.712Z,41.50
2022-11-16T06:05:46.718Z,44.40
2022-11-16T06:06:46.675Z,38.70
2022-11-16T06:07:46.654Z,42.20
2022-11-16T06:08:46.636Z,45.80
2022-11-16T06:09:46.665Z,40.60
2022-11-16T06:10:46.644Z,42.40
2022-11-16T06:11:46.583Z,39.10
2022-11-16T06:12:46.584Z,42.60
2022-11-16T06:13:46.553Z,45.70
2022-11-16T06:14:46.535Z,41.20
2022-11-16T06:15:52.230Z,41.00
2022-11-16T06:16:48.679Z,39.60
2022-11-16T06:17:46.479Z,38.30
2022-11-16T06:18:46.461Z,38.90
2022-11-16T06:19:46.448Z,36.90
2022-11-16T06:20:46.451Z,37.20
2022-11-16T06:21:46.405Z,37.80
2022-11-16T06:22:46.391Z,38.50
2022-11-16T06:23:46.376Z,38.20
2022-11-16T06:24:46.355Z,35.40
2022-11-16T06:25:46.372Z,36.50
2022-11-16T06:26:46.328Z,36.50
2022-11-16T06:27:46.303Z,38.10
2022-11-16T06:28:46.302Z,34.80
2022-11-16T06:29:46.288Z,36.60
2022-11-16T06:30:46.242Z,36.80
2022-11-16T06:31:46.258Z,35.70
2022-11-16T06:32:46.856Z,35.00
2022-11-16T06:33:46.207Z,34.90
2022-11-16T06:34:46.215Z,33.80
2022-11-16T06:35:46.186Z,39.40
2022-11-16T06:36:46.195Z,34.40
2022-11-16T06:37:46.137Z,34.60
2022-11-16T06:38:46.103Z,37.00
2022-11-16T06:39:46.121Z,37.50
2022-11-16T06:40:46.065Z,36.80
2022-11-16T06:41:46.081Z,35.00
2022-11-16T06:42:46.038Z,38.70
2022-11-16T06:43:46.022Z,40.80
2022-11-16T06:44:46.002Z,37.30
2022-11-16T06:45:45.984Z,37.10
2022-11-16T06:46:45.979Z,40.70
2022-11-16T06:47:47.079Z,36.40
2022-11-16T06:48:45.933Z,43.20
2022-11-16T06:49:45.913Z,40.80
2022-11-16T06:50:45.900Z,37.10
2022-11-16T06:51:45.908Z,41.00
2022-11-16T06:52:45.859Z,40.60
2022-11-16T06:53:45.860Z,40.40
2022-11-16T06:54:45.823Z,42.90
2022-11-16T06:55:45.814Z,43.90
2022-11-16T06:56:45.859Z,39.70
2022-11-16T06:57:46.019Z,43.20
2022-11-16T06:58:45.755Z,44.30
2022-11-16T06:59:45.762Z,40.40
2022-11-16T07:00:45.758Z,40.90
2022-11-16T07:01:45.757Z,40.20
2022-11-16T07:02:45.678Z,41.10
2022-11-16T07:03:45.661Z,39.10
2022-11-16T07:04:45.685Z,43.30
2022-11-16T07:05:46.644Z,35.20
2022-11-16T07:06:45.642Z,38.80
2022-11-16T07:07:45.594Z,38.70
2022-11-16T07:08:45.583Z,38.80
2022-11-16T07:09:45.564Z,39.00
2022-11-16T07:10:45.535Z,41.00
2022-11-16T07:11:46.559Z,38.20
2022-11-16T07:12:45.504Z,39.70
2022-11-16T07:13:45.512Z,37.20
2022-11-16T07:14:45.486Z,37.10
2022-11-16T07:15:45.462Z,39.60
2022-11-16T07:16:45.656Z,42.00
2022-11-16T07:17:45.416Z,35.90
2022-11-16T07:18:45.403Z,34.60
2022-11-16T07:19:45.375Z,33.70
2022-11-16T07:20:46.370Z,38.50
2022-11-16T07:21:45.373Z,37.70
2022-11-16T07:22:45.346Z,35.70
2022-11-16T07:23:45.322Z,36.90
2022-11-16T07:24:45.302Z,35.80
2022-11-16T07:25:45.296Z,35.90
2022-11-16T07:26:45.292Z,39.80
2022-11-16T07:27:45.246Z,38.90
2022-11-16T07:28:48.479Z,38.90
2022-11-16T07:29:46.209Z,39.00
2022-11-16T07:30:45.193Z,45.10
2022-11-16T07:31:45.200Z,39.90
2022-11-16T07:32:45.175Z,37.90
2022-11-16T07:33:45.164Z,39.00
2022-11-16T07:34:45.130Z,40.00
2022-11-16T07:35:45.120Z,40.70
2022-11-16T07:36:45.192Z,43.40
2022-11-16T07:37:45.075Z,41.80
2022-11-16T07:38:45.063Z,43.10
2022-11-16T07:39:45.040Z,43.50
2022-11-16T07:40:45.020Z,40.80
2022-11-16T07:41:45.802Z,44.00
2022-11-16T07:42:51.814Z,44.60
2022-11-16T07:43:49.904Z,45.60
2022-11-16T07:44:45.951Z,48.90
2022-11-16T07:45:44.932Z,44.00
2022-11-16T07:46:47.109Z,46.30
2022-11-16T07:47:45.907Z,44.60
2022-11-16T07:48:44.874Z,47.80
2022-11-16T07:49:44.858Z,45.70
2022-11-16T07:50:44.855Z,48.00
2022-11-16T07:51:44.842Z,47.90
2022-11-16T07:52:45.053Z,48.50
2022-11-16T07:53:44.826Z,45.20
2022-11-16T07:54:44.773Z,46.60
2022-11-16T07:55:45.744Z,49.70
2022-11-16T07:56:44.777Z,51.60
2022-11-16T07:57:47.942Z,47.10
2022-11-16T07:58:45.706Z,44.70
2022-11-16T07:59:44.679Z,48.10
2022-11-16T08:00:44.679Z,46.10
2022-11-16T08:01:44.730Z,46.80
2022-11-16T08:02:44.626Z,48.00
2022-11-16T08:03:44.619Z,50.80
2022-11-16T08:04:44.590Z,51.80
2022-11-16T08:05:44.571Z,56.10
2022-11-16T08:06:44.583Z,50.00
2022-11-16T08:07:44.538Z,53.80
2022-11-16T08:08:45.099Z,51.90
2022-11-16T08:09:44.552Z,53.60
2022-11-16T08:10:44.485Z,52.20
2022-11-16T08:11:44.491Z,52.90
2022-11-16T08:12:44.450Z,53.00
2022-11-16T08:13:44.447Z,52.90
2022-11-16T08:14:45.025Z,51.00
2022-11-16T08:15:44.398Z,54.00
2022-11-16T08:16:44.407Z,52.20
2022-11-16T08:17:44.360Z,51.60
2022-11-16T08:18:44.346Z,53.00
2022-11-16T08:19:44.330Z,49.60
2022-11-16T08:20:44.310Z,52.00
2022-11-16T08:21:44.318Z,47.00
2022-11-16T08:22:44.279Z,47.80
2022-11-16T08:23:44.256Z,48.50
2022-11-16T08:24:44.244Z,49.40
2022-11-16T08:25:44.227Z,43.90
2022-11-16T08:26:44.229Z,47.80
2022-11-16T08:27:44.191Z,45.20
2022-11-16T08:28:44.172Z,46.40
2022-11-16T08:29:44.147Z,41.10
2022-11-16T08:30:46.362Z,44.20
2022-11-16T08:31:44.142Z,47.00
2022-11-16T08:32:44.094Z,46.20
2022-11-16T08:33:44.640Z,44.50
2022-11-16T08:34:44.097Z,43.10
2022-11-16T08:35:44.042Z,46.20
2022-11-16T08:36:44.046Z,46.50
2022-11-16T08:37:44.008Z,42.40
2022-11-16T08:38:43.984Z,42.50
2022-11-16T08:39:43.976Z,41.80
2022-11-16T08:40:43.952Z,42.10
2022-11-16T08:41:43.964Z,38.20
2022-11-16T08:42:44.182Z,42.00
2022-11-16T08:43:44.570Z,38.20
2022-11-16T08:44:43.887Z,41.70
2022-11-16T08:45:43.864Z,38.70
2022-11-16T08:46:43.857Z,41.80
2022-11-16T08:47:44.825Z,39.80
2022-11-16T08:48:43.802Z,44.30
2022-11-16T08:49:49.258Z,39.50
2022-11-16T08:51:10.524Z,39.70
2022-11-16T08:51:45.786Z,42.00
2022-11-16T08:52:43.735Z,37.10
2022-11-16T08:53:43.716Z,40.30
2022-11-16T08:54:43.700Z,40.50
2022-11-16T08:55:43.677Z,40.40
2022-11-16T08:56:43.771Z,40.60
2022-11-16T08:57:43.649Z,40.60
2022-11-16T08:58:43.643Z,40.20
2022-11-16T08:59:43.605Z,36.80
2022-11-16T09:00:43.585Z,44.90
2022-11-16T09:01:43.647Z,42.20
2022-11-16T09:02:43.546Z,39.60
2022-11-16T09:03:43.537Z,42.20
2022-11-16T09:04:43.507Z,38.30
2022-11-16T09:05:43.490Z,37.60
2022-11-16T09:06:43.493Z,37.10
2022-11-16T09:07:43.452Z,36.90
2022-11-16T09:08:43.428Z,37.10
2022-11-16T09:09:43.414Z,40.00
2022-11-16T09:10:43.396Z,39.20
2022-11-16T09:11:43.401Z,34.80
2022-11-16T09:12:43.357Z,38.40
2022-11-16T09:13:43.332Z,36.40
2022-11-16T09:14:43.318Z,35.70
2022-11-16T09:15:43.309Z,32.80
2022-11-16T09:16:43.302Z,35.10
2022-11-16T09:17:43.261Z,35.10
2022-11-16T09:18:43.239Z,31.90
2022-11-16T09:19:43.227Z,31.20
2022-11-16T09:20:43.208Z,25.20
2022-11-16T09:21:43.211Z,26.20
2022-11-16T09:22:43.166Z,28.20
2022-11-16T09:23:43.147Z,28.30
2022-11-16T09:24:43.121Z,32.70
2022-11-16T09:25:43.106Z,35.20
2022-11-16T09:26:43.111Z,34.00
2022-11-16T09:27:43.060Z,30.80
2022-11-16T09:28:43.053Z,31.10
2022-11-16T09:29:43.027Z,28.90
2022-11-16T09:30:43.021Z,28.40
2022-11-16T09:31:43.013Z,30.10
2022-11-16T09:32:42.983Z,31.20
2022-11-16T09:33:42.963Z,29.50
2022-11-16T09:34:42.930Z,30.10
2022-11-16T09:35:42.907Z,29.80
2022-11-16T09:36:43.001Z,28.60
2022-11-16T09:37:42.885Z,28.30
2022-11-16T09:39:10.447Z,31.20
2022-11-16T09:39:44.898Z,28.20
2022-11-16T09:40:43.795Z,26.30
2022-11-16T09:41:42.798Z,22.30
2022-11-16T09:42:42.801Z,24.50
2022-11-16T09:43:46.049Z,24.20
2022-11-16T09:44:43.821Z,26.80
2022-11-16T09:45:42.722Z,26.50
2022-11-16T09:46:42.704Z,27.00
2022-11-16T09:47:42.706Z,27.00
2022-11-16T09:48:42.664Z,27.50
2022-11-16T09:49:42.643Z,23.00
2022-11-16T09:50:42.616Z,20.90
2022-11-16T09:51:42.601Z,22.10
2022-11-16T09:52:42.603Z,19.20
2022-11-16T09:53:42.561Z,21.20
2022-11-16T09:54:42.548Z,18.50
2022-11-16T09:55:42.524Z,19.40
2022-11-16T09:56:42.503Z,18.50
2022-11-16T09:57:43.512Z,18.10
2022-11-16T09:58:42.466Z,18.80
2022-11-16T09:59:42.450Z,18.20
2022-11-16T10:00:42.562Z,18.10
2022-11-16T10:01:42.412Z,20.60
2022-11-16T10:02:42.416Z,18.60
2022-11-16T10:03:42.377Z,18.70
2022-11-16T10:04:42.358Z,18.30
2022-11-16T10:05:42.341Z,20.20
2022-11-16T10:06:42.352Z,19.30
2022-11-16T10:07:42.324Z,18.10
2022-11-16T10:08:42.278Z,16.50
2022-11-16T10:09:42.262Z,15.90
2022-11-16T10:10:42.269Z,18.60
2022-11-16T10:11:42.226Z,21.80
2022-11-16T10:12:42.233Z,22.20
2022-11-16T10:13:42.188Z,19.70
2022-11-16T10:14:42.175Z,18.90
2022-11-16T10:15:42.158Z,17.80
2022-11-16T10:16:42.212Z,17.20
2022-11-16T10:17:42.143Z,17.00
2022-11-16T10:18:42.093Z,17.40
2022-11-16T10:19:42.079Z,16.30
2022-11-16T10:20:42.060Z,18.00
2022-11-16T10:21:42.036Z,15.80
2022-11-16T10:22:42.043Z,16.50
2022-11-16T10:23:42.008Z,15.30
2022-11-16T10:24:41.993Z,17.10
2022-11-16T10:25:41.972Z,13.30
2022-11-16T10:26:41.945Z,16.10
2022-11-16T10:27:41.948Z,15.60
2022-11-16T10:28:41.907Z,16.30
2022-11-16T10:29:41.892Z,14.30
2022-11-16T10:30:41.884Z,14.20
2022-11-16T10:31:41.852Z,15.40
2022-11-16T10:32:41.856Z,15.30
2022-11-16T10:33:41.808Z,16.10
2022-11-16T10:34:41.796Z,14.70
2022-11-16T10:35:41.769Z,14.70
2022-11-16T10:36:41.757Z,14.90
2022-11-16T10:37:41.760Z,15.10
2022-11-16T10:38:41.713Z,15.30
2022-11-16T10:39:41.694Z,15.80
2022-11-16T10:40:41.678Z,14.30
2022-11-16T10:41:41.651Z,17.90
2022-11-16T10:42:41.657Z,15.30
2022-11-16T10:43:41.614Z,13.40
2022-11-16T10:44:41.591Z,16.00
2022-11-16T10:45:41.573Z,15.00
2022-11-16T10:46:41.551Z,14.80
2022-11-16T10:47:41.566Z,14.40
2022-11-16T10:48:41.588Z,13.80
2022-11-16T10:49:41.500Z,12.80
2022-11-16T10:50:41.477Z,13.80
2022-11-16T10:51:41.457Z,16.20
2022-11-16T10:52:41.468Z,13.30
2022-11-16T10:53:41.409Z,13.60
2022-11-16T10:54:44.278Z,13.40
2022-11-16T10:55:42.369Z,13.90
2022-11-16T10:56:41.352Z,14.30
2022-11-16T10:57:41.362Z,13.00
2022-11-16T10:58:41.316Z,15.80
2022-11-16T10:59:41.294Z,13.20
2022-11-16T11:00:41.361Z,14.90
2022-11-16T11:01:41.250Z,14.60
2022-11-16T11:02:41.257Z,13.30
2022-11-16T11:03:41.214Z,13.20
2022-11-16T11:04:41.276Z,13.50
2022-11-16T11:05:41.172Z,12.00
2022-11-16T11:06:41.154Z,12.40
2022-11-16T11:07:41.191Z,12.10
2022-11-16T11:08:41.112Z,11.20
2022-11-16T11:09:41.094Z,11.60
2022-11-16T11:10:41.073Z,13.00
2022-11-16T11:11:41.051Z,11.10
2022-11-16T11:12:41.059Z,11.70
2022-11-16T11:13:41.012Z,9.80
2022-11-16T11:14:40.997Z,10.70
2022-11-16T11:15:40.969Z,10.90
2022-11-16T11:16:40.953Z,11.00
2022-11-16T11:17:40.955Z,12.90
2022-11-16T11:18:40.907Z,11.80
2022-11-16T11:19:40.893Z,10.60
2022-11-16T11:20:44.850Z,11.80
2022-11-16T11:21:41.859Z,11.60
2022-11-16T11:22:40.854Z,10.20
2022-11-16T11:23:40.808Z,12.00
2022-11-16T11:24:45.355Z,9.60
2022-11-16T11:25:41.768Z,10.30
2022-11-16T11:26:40.749Z,8.80
2022-11-16T11:27:40.765Z,9.50
2022-11-16T11:28:40.705Z,8.50
2022-11-16T11:29:40.693Z,10.40
2022-11-16T11:30:40.670Z,5.70
2022-11-16T11:31:40.641Z,9.60
2022-11-16T11:32:40.649Z,7.60
2022-11-16T11:33:40.607Z,7.10
2022-11-16T11:34:40.588Z,6.90
2022-11-16T11:35:40.572Z,7.20
2022-11-16T11:36:40.620Z,9.00
2022-11-16T11:37:40.543Z,6.50
2022-11-16T11:38:40.500Z,6.90
2022-11-16T11:39:40.564Z,8.00
2022-11-16T11:40:40.459Z,6.30
2022-11-16T11:41:40.439Z,8.20
2022-11-16T11:42:40.449Z,7.20
2022-11-16T11:43:40.389Z,6.70
2022-11-16T11:44:40.375Z,6.10
2022-11-16T11:45:40.348Z,6.70
2022-11-16T11:47:28.710Z,6.40
2022-11-16T11:47:57.461Z,6.90
2022-11-16T11:48:42.327Z,6.20
2022-11-16T11:49:40.268Z,7.40
2022-11-16T11:50:40.248Z,6.30
2022-11-16T11:51:40.277Z,6.10
2022-11-16T11:52:40.207Z,5.90
2022-11-16T11:53:40.217Z,6.40
2022-11-16T11:54:45.528Z,6.20
2022-11-16T11:55:42.147Z,6.30
2022-11-16T11:56:40.139Z,4.30
2022-11-16T11:57:40.130Z,4.80
2022-11-16T11:58:40.097Z,5.80
2022-11-16T11:59:40.060Z,4.70
2022-11-16T12:00:40.178Z,5.00
2022-11-16T12:01:40.206Z,6.10
2022-11-16T12:02:40.108Z,4.80
2022-11-16T12:03:39.978Z,4.20
2022-11-16T12:04:39.977Z,6.50
2022-11-16T12:05:39.940Z,4.80
2022-11-16T12:06:43.751Z,6.40
2022-11-16T12:07:40.944Z,6.80
2022-11-16T12:08:39.872Z,5.50
2022-11-16T12:09:39.855Z,6.40
2022-11-16T12:11:20.714Z,4.10
2022-11-16T12:11:39.815Z,6.80
2022-11-16T12:12:39.878Z,8.10
2022-11-16T12:13:39.812Z,6.50
2022-11-16T12:14:39.755Z,6.40
2022-11-16T12:16:20.623Z,5.90
2022-11-16T12:16:39.729Z,3.90
2022-11-16T12:18:23.607Z,5.20
2022-11-16T12:18:39.700Z,5.30
2022-11-16T12:19:40.672Z,5.30
2022-11-16T12:20:39.664Z,5.40
2022-11-16T12:21:39.635Z,5.40
2022-11-16T12:22:39.631Z,4.20
2022-11-16T12:23:40.605Z,4.50
2022-11-16T12:24:39.635Z,4.90
2022-11-16T12:25:39.540Z,4.90
2022-11-16T12:26:39.520Z,6.70
2022-11-16T12:27:39.540Z,4.30
2022-11-16T12:28:39.482Z,6.30
2022-11-16T12:29:39.473Z,4.50
2022-11-16T12:30:39.434Z,4.10
2022-11-16T12:31:39.420Z,5.80
2022-11-16T12:32:39.428Z,5.50
2022-11-16T12:33:39.405Z,4.10
2022-11-16T12:34:39.365Z,5.40
2022-11-16T12:35:39.350Z,6.30
2022-11-16T12:36:39.311Z,5.70
2022-11-16T12:37:39.351Z,4.50
2022-11-16T12:39:20.385Z,5.20
2022-11-16T12:39:39.279Z,4.50
2022-11-16T12:40:39.322Z,3.50
2022-11-16T12:41:39.211Z,5.10
2022-11-16T12:42:40.192Z,4.50
2022-11-16T12:44:29.044Z,4.20
2022-11-16T12:44:39.179Z,7.20
2022-11-16T12:45:39.155Z,5.00
2022-11-16T12:47:25.996Z,5.30
2022-11-16T12:47:39.158Z,8.10
2022-11-16T12:48:39.109Z,5.50
2022-11-16T12:49:39.050Z,3.80
2022-11-16T12:50:39.042Z,6.30
2022-11-16T12:51:39.009Z,4.00
2022-11-16T12:52:39.033Z,5.50
2022-11-16T12:53:38.980Z,6.00
2022-11-16T12:54:52.248Z,5.80
2022-11-16T12:56:22.819Z,9.20
2022-11-16T12:56:38.922Z,6.00
2022-11-16T12:57:39.762Z,6.90